sensor_id;sensor_type;location;lat;lon;timestamp;pressure;altitude;pressure_sealevel;temperature;humidity
59686;BME280;45554;51.096;16.976;2023-07-31T00:02:05;99846.96;;;15.85;97.83
59686;BME280;45554;51.096;16.976;2023-07-31T00:04:33;99848.94;;;15.83;97.68
59686;BME280;45554;51.096;16.976;2023-07-31T00:07:01;99848.33;;;15.82;97.65
59686;BME280;45554;51.096;16.976;2023-07-31T00:09:34;99849.61;;;15.79;97.70
59686;BME280;45554;51.096;16.976;2023-07-31T00:12:03;99849.04;;;15.77;97.54
59686;BME280;45554;51.096;16.976;2023-07-31T00:14:31;99849.98;;;15.77;97.45
59686;BME280;45554;51.096;16.976;2023-07-31T00:16:59;99853.58;;;15.76;97.28
59686;BME280;45554;51.096;16.976;2023-07-31T00:19:28;99854.24;;;15.74;97.16
59686;BME280;45554;51.096;16.976;2023-07-31T00:21:56;99853.27;;;15.73;97.12
59686;BME280;45554;51.096;16.976;2023-07-31T00:24:24;99849.56;;;15.71;96.92
59686;BME280;45554;51.096;16.976;2023-07-31T00:26:52;99854.38;;;15.71;96.92
59686;BME280;45554;51.096;16.976;2023-07-31T00:29:20;99854.78;;;15.70;96.55
59686;BME280;45554;51.096;16.976;2023-07-31T00:31:48;99859.83;;;15.69;96.09
59686;BME280;45554;51.096;16.976;2023-07-31T00:34:18;99859.40;;;15.68;95.83
59686;BME280;45554;51.096;16.976;2023-07-31T00:36:46;99863.22;;;15.67;95.58
59686;BME280;45554;51.096;16.976;2023-07-31T00:39:16;99862.42;;;15.65;95.27
59686;BME280;45554;51.096;16.976;2023-07-31T00:41:45;99860.07;;;15.63;94.72
59686;BME280;45554;51.096;16.976;2023-07-31T00:44:13;99854.83;;;15.63;94.43
59686;BME280;45554;51.096;16.976;2023-07-31T00:46:41;99855.05;;;15.62;94.37
59686;BME280;45554;51.096;16.976;2023-07-31T00:49:10;99857.74;;;15.62;93.90
59686;BME280;45554;51.096;16.976;2023-07-31T00:51:38;99860.75;;;15.62;93.86
59686;BME280;45554;51.096;16.976;2023-07-31T00:54:06;99862.95;;;15.61;93.59
59686;BME280;45554;51.096;16.976;2023-07-31T00:56:34;99860.22;;;15.60;93.50
59686;BME280;45554;51.096;16.976;2023-07-31T00:59:02;99856.45;;;15.58;93.48
59686;BME280;45554;51.096;16.976;2023-07-31T01:01:33;99859.55;;;15.57;93.40
59686;BME280;45554;51.096;16.976;2023-07-31T01:04:01;99854.83;;;15.57;93.53
59686;BME280;45554;51.096;16.976;2023-07-31T01:06:52;99855.58;;;15.56;93.66
59686;BME280;45554;51.096;16.976;2023-07-31T01:12:07;99857.98;;;15.55;93.52
59686;BME280;45554;51.096;16.976;2023-07-31T01:14:37;99853.20;;;15.55;93.43
59686;BME280;45554;51.096;16.976;2023-07-31T01:17:05;99858.50;;;15.55;93.31
59686;BME280;45554;51.096;16.976;2023-07-31T01:19:33;99859.95;;;15.55;93.17
59686;BME280;45554;51.096;16.976;2023-07-31T01:22:23;99864.39;;;15.54;93.07
59686;BME280;45554;51.096;16.976;2023-07-31T01:27:36;99861.95;;;15.54;92.69
59686;BME280;45554;51.096;16.976;2023-07-31T01:30:12;99858.95;;;15.54;92.65
59686;BME280;45554;51.096;16.976;2023-07-31T01:32:48;99861.34;;;15.53;92.24
59686;BME280;45554;51.096;16.976;2023-07-31T01:35:16;99863.40;;;15.54;92.11
59686;BME280;45554;51.096;16.976;2023-07-31T01:37:45;99859.99;;;15.54;91.63
59686;BME280;45554;51.096;16.976;2023-07-31T01:40:13;99857.84;;;15.55;91.78
59686;BME280;45554;51.096;16.976;2023-07-31T01:42:42;99858.67;;;15.55;91.83
59686;BME280;45554;51.096;16.976;2023-07-31T01:45:11;99860.23;;;15.55;91.75
59686;BME280;45554;51.096;16.976;2023-07-31T01:47:39;99860.65;;;15.55;91.68
59686;BME280;45554;51.096;16.976;2023-07-31T01:50:08;99854.16;;;15.54;91.65
59686;BME280;45554;51.096;16.976;2023-07-31T01:52:36;99850.10;;;15.54;91.65
59686;BME280;45554;51.096;16.976;2023-07-31T01:55:05;99846.77;;;15.54;91.54
59686;BME280;45554;51.096;16.976;2023-07-31T01:57:36;99848.21;;;15.53;91.55
59686;BME280;45554;51.096;16.976;2023-07-31T02:00:05;99853.77;;;15.52;91.35
59686;BME280;45554;51.096;16.976;2023-07-31T02:02:39;99851.05;;;15.51;91.30
59686;BME280;45554;51.096;16.976;2023-07-31T02:05:07;99848.86;;;15.49;91.23
59686;BME280;45554;51.096;16.976;2023-07-31T02:07:35;99855.70;;;15.50;91.29
59686;BME280;45554;51.096;16.976;2023-07-31T02:10:04;99854.89;;;15.49;91.20
59686;BME280;45554;51.096;16.976;2023-07-31T02:12:32;99857.17;;;15.49;91.15
59686;BME280;45554;51.096;16.976;2023-07-31T02:15:02;99857.68;;;15.50;91.00
59686;BME280;45554;51.096;16.976;2023-07-31T02:17:30;99860.64;;;15.50;91.02
59686;BME280;45554;51.096;16.976;2023-07-31T02:19:59;99859.92;;;15.50;91.00
59686;BME280;45554;51.096;16.976;2023-07-31T02:22:27;99858.61;;;15.51;91.04
59686;BME280;45554;51.096;16.976;2023-07-31T02:24:56;99856.86;;;15.51;91.10
59686;BME280;45554;51.096;16.976;2023-07-31T02:27:24;99855.24;;;15.52;90.91
59686;BME280;45554;51.096;16.976;2023-07-31T02:29:55;99855.05;;;15.52;90.87
59686;BME280;45554;51.096;16.976;2023-07-31T02:32:24;99853.65;;;15.51;90.87
59686;BME280;45554;51.096;16.976;2023-07-31T02:34:52;99852.61;;;15.51;90.80
59686;BME280;45554;51.096;16.976;2023-07-31T02:37:20;99851.23;;;15.51;90.66
59686;BME280;45554;51.096;16.976;2023-07-31T02:39:48;99849.95;;;15.49;90.46
59686;BME280;45554;51.096;16.976;2023-07-31T02:42:16;99848.45;;;15.48;90.32
59686;BME280;45554;51.096;16.976;2023-07-31T02:44:44;99846.48;;;15.47;90.38
59686;BME280;45554;51.096;16.976;2023-07-31T02:47:12;99848.63;;;15.44;90.38
59686;BME280;45554;51.096;16.976;2023-07-31T02:49:40;99849.07;;;15.41;90.35
59686;BME280;45554;51.096;16.976;2023-07-31T02:52:08;99850.74;;;15.37;90.10
59686;BME280;45554;51.096;16.976;2023-07-31T02:54:36;99851.91;;;15.34;89.69
59686;BME280;45554;51.096;16.976;2023-07-31T02:57:04;99853.26;;;15.31;89.21
59686;BME280;45554;51.096;16.976;2023-07-31T02:59:32;99854.56;;;15.27;88.77
59686;BME280;45554;51.096;16.976;2023-07-31T03:02:01;99855.31;;;15.25;88.37
59686;BME280;45554;51.096;16.976;2023-07-31T03:04:29;99856.39;;;15.22;88.10
59686;BME280;45554;51.096;16.976;2023-07-31T03:06:58;99853.21;;;15.20;88.03
59686;BME280;45554;51.096;16.976;2023-07-31T03:09:27;99855.14;;;15.18;87.96
59686;BME280;45554;51.096;16.976;2023-07-31T03:11:55;99853.32;;;15.17;88.10
59686;BME280;45554;51.096;16.976;2023-07-31T03:14:23;99854.73;;;15.15;88.23
59686;BME280;45554;51.096;16.976;2023-07-31T03:16:52;99858.64;;;15.12;88.41
59686;BME280;45554;51.096;16.976;2023-07-31T03:19:20;99856.80;;;15.10;88.31
59686;BME280;45554;51.096;16.976;2023-07-31T03:21:48;99851.89;;;15.08;88.18
59686;BME280;45554;51.096;16.976;2023-07-31T03:24:16;99852.66;;;15.05;88.07
59686;BME280;45554;51.096;16.976;2023-07-31T03:26:44;99857.41;;;15.03;88.11
59686;BME280;45554;51.096;16.976;2023-07-31T03:29:12;99861.20;;;15.02;88.28
59686;BME280;45554;51.096;16.976;2023-07-31T03:31:40;99856.85;;;15.01;88.33
59686;BME280;45554;51.096;16.976;2023-07-31T03:34:08;99856.41;;;15.00;88.25
59686;BME280;45554;51.096;16.976;2023-07-31T03:36:36;99857.41;;;15.01;88.41
59686;BME280;45554;51.096;16.976;2023-07-31T03:39:06;99858.33;;;15.00;88.49
59686;BME280;45554;51.096;16.976;2023-07-31T03:41:34;99858.32;;;15.00;88.52
59686;BME280;45554;51.096;16.976;2023-07-31T03:44:02;99856.23;;;15.00;88.32
59686;BME280;45554;51.096;16.976;2023-07-31T03:46:31;99859.17;;;15.01;88.22
59686;BME280;45554;51.096;16.976;2023-07-31T03:48:59;99860.73;;;15.01;88.14
59686;BME280;45554;51.096;16.976;2023-07-31T03:51:27;99860.26;;;15.01;88.13
59686;BME280;45554;51.096;16.976;2023-07-31T03:53:56;99859.31;;;15.01;87.88
59686;BME280;45554;51.096;16.976;2023-07-31T03:56:24;99854.85;;;15.02;87.82
59686;BME280;45554;51.096;16.976;2023-07-31T03:58:52;99853.38;;;15.02;87.71
59686;BME280;45554;51.096;16.976;2023-07-31T04:01:21;99849.13;;;15.03;87.92
59686;BME280;45554;51.096;16.976;2023-07-31T04:03:48;99845.14;;;15.04;87.88
59686;BME280;45554;51.096;16.976;2023-07-31T04:06:17;99844.33;;;15.05;87.79
59686;BME280;45554;51.096;16.976;2023-07-31T04:08:46;99842.48;;;15.06;87.79
59686;BME280;45554;51.096;16.976;2023-07-31T04:11:14;99845.71;;;15.07;87.67
59686;BME280;45554;51.096;16.976;2023-07-31T04:13:42;99849.24;;;15.10;87.57
59686;BME280;45554;51.096;16.976;2023-07-31T04:16:10;99848.36;;;15.12;87.40
59686;BME280;45554;51.096;16.976;2023-07-31T04:18:38;99847.27;;;15.15;87.28
59686;BME280;45554;51.096;16.976;2023-07-31T04:21:07;99848.10;;;15.18;87.06
59686;BME280;45554;51.096;16.976;2023-07-31T04:23:35;99851.27;;;15.22;86.75
59686;BME280;45554;51.096;16.976;2023-07-31T04:26:03;99848.90;;;15.28;86.70
59686;BME280;45554;51.096;16.976;2023-07-31T04:28:31;99852.27;;;15.34;86.39
59686;BME280;45554;51.096;16.976;2023-07-31T04:31:00;99849.66;;;15.40;86.15
59686;BME280;45554;51.096;16.976;2023-07-31T04:33:28;99847.77;;;15.45;85.78
59686;BME280;45554;51.096;16.976;2023-07-31T04:35:56;99849.33;;;15.53;85.38
59686;BME280;45554;51.096;16.976;2023-07-31T04:38:24;99853.58;;;15.61;85.33
59686;BME280;45554;51.096;16.976;2023-07-31T04:40:52;99852.79;;;15.68;84.77
59686;BME280;45554;51.096;16.976;2023-07-31T04:43:20;99852.35;;;15.76;84.16
59686;BME280;45554;51.096;16.976;2023-07-31T04:45:48;99848.46;;;15.84;84.43
59686;BME280;45554;51.096;16.976;2023-07-31T04:48:18;99848.60;;;15.94;84.15
59686;BME280;45554;51.096;16.976;2023-07-31T04:50:45;99847.54;;;16.02;83.49
59686;BME280;45554;51.096;16.976;2023-07-31T04:53:14;99847.58;;;16.10;83.49
59686;BME280;45554;51.096;16.976;2023-07-31T04:55:42;99849.67;;;16.19;83.19
59686;BME280;45554;51.096;16.976;2023-07-31T04:58:10;99845.27;;;16.27;82.94
59686;BME280;45554;51.096;16.976;2023-07-31T05:00:38;99844.02;;;16.36;83.12
59686;BME280;45554;51.096;16.976;2023-07-31T05:03:06;99843.73;;;16.45;83.26
59686;BME280;45554;51.096;16.976;2023-07-31T05:05:35;99848.56;;;16.55;83.22
59686;BME280;45554;51.096;16.976;2023-07-31T05:08:04;99845.73;;;16.63;83.03
59686;BME280;45554;51.096;16.976;2023-07-31T05:10:34;99845.67;;;16.71;82.88
59686;BME280;45554;51.096;16.976;2023-07-31T05:13:02;99844.11;;;16.79;82.77
59686;BME280;45554;51.096;16.976;2023-07-31T05:15:30;99842.98;;;16.88;82.70
59686;BME280;45554;51.096;16.976;2023-07-31T05:17:58;99845.23;;;16.97;82.42
59686;BME280;45554;51.096;16.976;2023-07-31T05:20:27;99844.16;;;17.05;82.26
59686;BME280;45554;51.096;16.976;2023-07-31T05:22:55;99840.88;;;17.14;82.00
59686;BME280;45554;51.096;16.976;2023-07-31T05:25:23;99844.38;;;17.23;81.47
59686;BME280;45554;51.096;16.976;2023-07-31T05:27:52;99834.88;;;17.26;80.74
59686;BME280;45554;51.096;16.976;2023-07-31T05:30:21;99841.50;;;17.35;79.81
59686;BME280;45554;51.096;16.976;2023-07-31T05:32:49;99844.89;;;17.41;79.56
59686;BME280;45554;51.096;16.976;2023-07-31T05:35:17;99853.60;;;17.48;79.48
59686;BME280;45554;51.096;16.976;2023-07-31T05:37:46;99846.27;;;17.55;78.90
59686;BME280;45554;51.096;16.976;2023-07-31T05:40:14;99849.42;;;17.63;78.51
59686;BME280;45554;51.096;16.976;2023-07-31T05:42:42;99848.89;;;17.71;77.86
59686;BME280;45554;51.096;16.976;2023-07-31T05:45:10;99843.15;;;17.78;77.47
59686;BME280;45554;51.096;16.976;2023-07-31T05:47:38;99842.04;;;17.84;77.24
59686;BME280;45554;51.096;16.976;2023-07-31T05:50:07;99842.11;;;17.89;76.11
59686;BME280;45554;51.096;16.976;2023-07-31T05:52:35;99838.16;;;17.93;75.54
59686;BME280;45554;51.096;16.976;2023-07-31T05:55:04;99840.55;;;18.00;75.93
59686;BME280;45554;51.096;16.976;2023-07-31T05:57:32;99834.57;;;18.07;75.67
59686;BME280;45554;51.096;16.976;2023-07-31T06:00:00;99834.89;;;18.14;74.42
59686;BME280;45554;51.096;16.976;2023-07-31T06:02:32;99833.86;;;18.19;74.53
59686;BME280;45554;51.096;16.976;2023-07-31T06:05:07;99831.91;;;18.27;74.88
59686;BME280;45554;51.096;16.976;2023-07-31T06:07:36;99833.50;;;18.34;74.24
59686;BME280;45554;51.096;16.976;2023-07-31T06:10:13;99833.77;;;18.41;74.29
59686;BME280;45554;51.096;16.976;2023-07-31T06:12:41;99832.03;;;18.48;74.25
59686;BME280;45554;51.096;16.976;2023-07-31T06:15:10;99835.98;;;18.53;73.19
59686;BME280;45554;51.096;16.976;2023-07-31T06:17:40;99834.71;;;18.57;72.99
59686;BME280;45554;51.096;16.976;2023-07-31T06:20:09;99835.30;;;18.62;72.60
59686;BME280;45554;51.096;16.976;2023-07-31T06:22:44;99833.59;;;18.67;72.26
59686;BME280;45554;51.096;16.976;2023-07-31T06:25:12;99832.13;;;18.73;72.51
59686;BME280;45554;51.096;16.976;2023-07-31T06:27:43;99831.35;;;18.81;72.77
59686;BME280;45554;51.096;16.976;2023-07-31T06:30:11;99831.45;;;18.89;72.48
59686;BME280;45554;51.096;16.976;2023-07-31T06:32:40;99831.27;;;19.00;72.67
59686;BME280;45554;51.096;16.976;2023-07-31T06:35:08;99833.63;;;19.13;72.07
59686;BME280;45554;51.096;16.976;2023-07-31T06:37:37;99838.92;;;19.26;71.64
59686;BME280;45554;51.096;16.976;2023-07-31T06:40:09;99839.58;;;19.39;71.16
59686;BME280;45554;51.096;16.976;2023-07-31T06:42:37;99842.58;;;19.54;71.32
59686;BME280;45554;51.096;16.976;2023-07-31T06:45:09;99842.15;;;19.69;71.36
59686;BME280;45554;51.096;16.976;2023-07-31T06:47:41;99839.09;;;19.82;71.43
59686;BME280;45554;51.096;16.976;2023-07-31T06:50:09;99836.28;;;19.92;71.33
59686;BME280;45554;51.096;16.976;2023-07-31T06:52:37;99832.65;;;19.98;70.84
59686;BME280;45554;51.096;16.976;2023-07-31T06:55:20;99834.97;;;20.05;70.28
59686;BME280;45554;51.096;16.976;2023-07-31T06:57:51;99834.18;;;20.11;70.07
59686;BME280;45554;51.096;16.976;2023-07-31T07:00:21;99827.02;;;20.17;69.77
59686;BME280;45554;51.096;16.976;2023-07-31T07:02:50;99827.65;;;20.25;69.98
59686;BME280;45554;51.096;16.976;2023-07-31T07:05:18;99826.24;;;20.31;69.49
59686;BME280;45554;51.096;16.976;2023-07-31T07:07:49;99822.80;;;20.37;69.42
59686;BME280;45554;51.096;16.976;2023-07-31T07:10:18;99827.46;;;20.46;69.20
59686;BME280;45554;51.096;16.976;2023-07-31T07:12:46;99825.20;;;20.55;68.81
59686;BME280;45554;51.096;16.976;2023-07-31T07:15:14;99818.96;;;20.66;68.33
59686;BME280;45554;51.096;16.976;2023-07-31T07:17:42;99816.83;;;20.74;67.92
59686;BME280;45554;51.096;16.976;2023-07-31T07:20:10;99815.02;;;20.85;67.59
59686;BME280;45554;51.096;16.976;2023-07-31T07:22:39;99813.05;;;20.94;67.16
59686;BME280;45554;51.096;16.976;2023-07-31T07:25:07;99810.77;;;20.99;66.64
59686;BME280;45554;51.096;16.976;2023-07-31T07:27:37;99815.14;;;21.01;66.25
59686;BME280;45554;51.096;16.976;2023-07-31T07:30:06;99813.71;;;21.03;66.05
59686;BME280;45554;51.096;16.976;2023-07-31T07:32:34;99807.02;;;21.03;65.96
59686;BME280;45554;51.096;16.976;2023-07-31T07:35:02;99801.18;;;21.03;65.74
59686;BME280;45554;51.096;16.976;2023-07-31T07:37:31;99801.52;;;21.02;65.75
59686;BME280;45554;51.096;16.976;2023-07-31T07:40:01;99799.38;;;21.03;65.86
59686;BME280;45554;51.096;16.976;2023-07-31T07:42:32;99799.38;;;21.05;65.73
59686;BME280;45554;51.096;16.976;2023-07-31T07:45:04;99803.35;;;21.08;65.51
59686;BME280;45554;51.096;16.976;2023-07-31T07:47:33;99800.89;;;21.11;65.10
59686;BME280;45554;51.096;16.976;2023-07-31T07:50:01;99797.52;;;21.19;65.04
59686;BME280;45554;51.096;16.976;2023-07-31T07:52:29;99796.09;;;21.28;63.59
59686;BME280;45554;51.096;16.976;2023-07-31T07:55:01;99799.02;;;21.32;62.99
59686;BME280;45554;51.096;16.976;2023-07-31T07:57:31;99800.00;;;21.36;62.49
59686;BME280;45554;51.096;16.976;2023-07-31T08:00:01;99799.73;;;21.40;61.83
59686;BME280;45554;51.096;16.976;2023-07-31T08:02:41;99794.02;;;21.45;61.22
59686;BME280;45554;51.096;16.976;2023-07-31T08:05:09;99790.35;;;21.48;60.75
59686;BME280;45554;51.096;16.976;2023-07-31T08:07:42;99793.10;;;21.54;60.62
59686;BME280;45554;51.096;16.976;2023-07-31T08:10:10;99789.05;;;21.61;60.88
59686;BME280;45554;51.096;16.976;2023-07-31T08:12:38;99781.44;;;21.68;59.66
59686;BME280;45554;51.096;16.976;2023-07-31T08:15:07;99782.45;;;21.80;60.22
59686;BME280;45554;51.096;16.976;2023-07-31T08:17:36;99787.40;;;21.96;59.74
59686;BME280;45554;51.096;16.976;2023-07-31T08:20:07;99787.52;;;22.16;58.74
59686;BME280;45554;51.096;16.976;2023-07-31T08:22:57;99791.68;;;22.37;57.33
59686;BME280;45554;51.096;16.976;2023-07-31T08:25:40;99787.63;;;22.57;55.85
59686;BME280;45554;51.096;16.976;2023-07-31T08:28:10;99787.09;;;22.74;55.43
59686;BME280;45554;51.096;16.976;2023-07-31T08:30:39;99788.44;;;22.89;55.00
59686;BME280;45554;51.096;16.976;2023-07-31T08:33:08;99798.79;;;22.99;53.93
59686;BME280;45554;51.096;16.976;2023-07-31T08:35:38;99798.49;;;23.03;52.88
59686;BME280;45554;51.096;16.976;2023-07-31T08:38:12;99799.27;;;23.05;52.55
59686;BME280;45554;51.096;16.976;2023-07-31T08:40:39;99804.71;;;23.00;50.34
59686;BME280;45554;51.096;16.976;2023-07-31T08:43:10;99800.55;;;22.88;51.48
59686;BME280;45554;51.096;16.976;2023-07-31T08:45:38;99793.10;;;22.76;52.48
59686;BME280;45554;51.096;16.976;2023-07-31T08:48:08;99794.77;;;22.68;53.24
59686;BME280;45554;51.096;16.976;2023-07-31T08:50:36;99795.17;;;22.60;53.12
59686;BME280;45554;51.096;16.976;2023-07-31T08:53:09;99792.46;;;22.48;53.44
59686;BME280;45554;51.096;16.976;2023-07-31T08:55:38;99792.59;;;22.43;53.96
59686;BME280;45554;51.096;16.976;2023-07-31T08:58:09;99794.05;;;22.40;53.67
59686;BME280;45554;51.096;16.976;2023-07-31T09:00:40;99794.55;;;22.27;52.84
59686;BME280;45554;51.096;16.976;2023-07-31T09:03:11;99798.44;;;22.09;53.42
59686;BME280;45554;51.096;16.976;2023-07-31T09:05:43;99801.16;;;21.93;53.71
59686;BME280;45554;51.096;16.976;2023-07-31T09:08:20;99800.36;;;21.79;54.18
59686;BME280;45554;51.096;16.976;2023-07-31T09:10:49;99796.49;;;21.74;54.09
59686;BME280;45554;51.096;16.976;2023-07-31T09:13:24;99794.05;;;21.73;54.31
59686;BME280;45554;51.096;16.976;2023-07-31T09:15:52;99789.86;;;21.79;54.89
59686;BME280;45554;51.096;16.976;2023-07-31T09:18:21;99795.65;;;21.88;54.22
59686;BME280;45554;51.096;16.976;2023-07-31T09:21:01;99798.61;;;21.91;53.89
59686;BME280;45554;51.096;16.976;2023-07-31T09:23:46;99801.01;;;21.86;53.05
59686;BME280;45554;51.096;16.976;2023-07-31T09:26:35;99801.36;;;21.75;52.99
59686;BME280;45554;51.096;16.976;2023-07-31T09:29:05;99806.84;;;21.67;52.88
59686;BME280;45554;51.096;16.976;2023-07-31T09:31:43;99806.84;;;21.57;53.12
59686;BME280;45554;51.096;16.976;2023-07-31T09:34:12;99810.11;;;21.48;53.46
59686;BME280;45554;51.096;16.976;2023-07-31T09:36:42;99812.27;;;21.38;53.16
59686;BME280;45554;51.096;16.976;2023-07-31T09:39:11;99812.39;;;21.27;53.83
59686;BME280;45554;51.096;16.976;2023-07-31T09:41:53;99815.63;;;21.27;54.24
59686;BME280;45554;51.096;16.976;2023-07-31T09:44:39;99819.34;;;21.27;54.16
59686;BME280;45554;51.096;16.976;2023-07-31T09:47:22;99817.61;;;21.24;53.85
59686;BME280;45554;51.096;16.976;2023-07-31T09:49:54;99814.95;;;21.18;54.29
59686;BME280;45554;51.096;16.976;2023-07-31T09:52:38;99811.02;;;21.13;54.20
59686;BME280;45554;51.096;16.976;2023-07-31T09:55:10;99815.48;;;21.09;53.94
59686;BME280;45554;51.096;16.976;2023-07-31T09:57:46;99810.45;;;21.08;54.47
59686;BME280;45554;51.096;16.976;2023-07-31T10:00:19;99808.97;;;21.07;54.41
59686;BME280;45554;51.096;16.976;2023-07-31T10:02:52;99809.80;;;21.01;54.49
59686;BME280;45554;51.096;16.976;2023-07-31T10:05:22;99807.17;;;20.90;54.43
59686;BME280;45554;51.096;16.976;2023-07-31T10:07:55;99803.70;;;20.77;54.53
59686;BME280;45554;51.096;16.976;2023-07-31T10:10:27;99797.27;;;20.67;55.45
59686;BME280;45554;51.096;16.976;2023-07-31T10:12:58;99796.66;;;20.61;55.80
59686;BME280;45554;51.096;16.976;2023-07-31T10:15:30;99797.19;;;20.60;56.26
59686;BME280;45554;51.096;16.976;2023-07-31T10:17:59;99795.65;;;20.59;56.79
59686;BME280;45554;51.096;16.976;2023-07-31T10:20:27;99797.91;;;20.61;56.06
59686;BME280;45554;51.096;16.976;2023-07-31T10:22:57;99800.09;;;20.61;56.10
59686;BME280;45554;51.096;16.976;2023-07-31T10:25:27;99803.96;;;20.58;56.11
59686;BME280;45554;51.096;16.976;2023-07-31T10:28:04;99804.58;;;20.54;56.57
59686;BME280;45554;51.096;16.976;2023-07-31T10:30:35;99798.88;;;20.59;56.98
59686;BME280;45554;51.096;16.976;2023-07-31T10:33:06;99797.32;;;20.63;56.84
59686;BME280;45554;51.096;16.976;2023-07-31T10:35:35;99794.52;;;20.71;56.64
59686;BME280;45554;51.096;16.976;2023-07-31T10:38:10;99792.75;;;20.82;56.60
59686;BME280;45554;51.096;16.976;2023-07-31T10:40:41;99799.86;;;20.91;56.58
59686;BME280;45554;51.096;16.976;2023-07-31T10:43:23;99797.39;;;20.93;56.21
59686;BME280;45554;51.096;16.976;2023-07-31T10:45:55;99796.05;;;20.89;55.91
59686;BME280;45554;51.096;16.976;2023-07-31T10:48:33;99791.48;;;20.84;56.29
59686;BME280;45554;51.096;16.976;2023-07-31T10:51:08;99787.65;;;20.79;56.79
59686;BME280;45554;51.096;16.976;2023-07-31T10:53:39;99788.77;;;20.77;56.35
59686;BME280;45554;51.096;16.976;2023-07-31T10:56:09;99784.45;;;20.79;56.61
59686;BME280;45554;51.096;16.976;2023-07-31T10:58:39;99781.01;;;20.83;56.08
59686;BME280;45554;51.096;16.976;2023-07-31T11:01:07;99776.24;;;20.85;55.64
59686;BME280;45554;51.096;16.976;2023-07-31T11:03:49;99772.61;;;20.89;55.68
59686;BME280;45554;51.096;16.976;2023-07-31T11:06:20;99771.41;;;21.00;55.60
59686;BME280;45554;51.096;16.976;2023-07-31T11:08:50;99769.73;;;21.14;55.51
59686;BME280;45554;51.096;16.976;2023-07-31T11:11:19;99761.93;;;21.32;55.54
59686;BME280;45554;51.096;16.976;2023-07-31T11:13:53;99760.16;;;21.61;54.91
59686;BME280;45554;51.096;16.976;2023-07-31T11:16:23;99756.17;;;21.93;53.73
59686;BME280;45554;51.096;16.976;2023-07-31T11:19:00;99753.23;;;22.28;53.40
59686;BME280;45554;51.096;16.976;2023-07-31T11:21:28;99750.82;;;22.52;51.72
59686;BME280;45554;51.096;16.976;2023-07-31T11:23:57;99745.82;;;22.70;50.69
59686;BME280;45554;51.096;16.976;2023-07-31T11:26:29;99745.83;;;22.82;49.95
59686;BME280;45554;51.096;16.976;2023-07-31T11:28:58;99741.96;;;22.91;50.51
59686;BME280;45554;51.096;16.976;2023-07-31T11:31:28;99739.58;;;23.01;51.19
59686;BME280;45554;51.096;16.976;2023-07-31T11:34:06;99735.25;;;23.13;50.78
59686;BME280;45554;51.096;16.976;2023-07-31T11:36:36;99727.27;;;23.24;50.02
59686;BME280;45554;51.096;16.976;2023-07-31T11:39:07;99730.29;;;23.34;49.00
59686;BME280;45554;51.096;16.976;2023-07-31T11:41:40;99724.48;;;23.43;49.76
59686;BME280;45554;51.096;16.976;2023-07-31T11:44:12;99725.16;;;23.53;49.02
59686;BME280;45554;51.096;16.976;2023-07-31T11:47:00;99713.61;;;23.64;49.25
59686;BME280;45554;51.096;16.976;2023-07-31T11:49:29;99712.52;;;23.81;48.06
59686;BME280;45554;51.096;16.976;2023-07-31T11:52:00;99712.33;;;23.88;47.19
59686;BME280;45554;51.096;16.976;2023-07-31T11:54:48;99706.48;;;24.00;48.07
59686;BME280;45554;51.096;16.976;2023-07-31T11:57:25;99702.25;;;24.16;47.67
59686;BME280;45554;51.096;16.976;2023-07-31T12:00:01;99691.80;;;24.35;47.55
59686;BME280;45554;51.096;16.976;2023-07-31T12:02:43;99692.92;;;24.63;46.89
59686;BME280;45554;51.096;16.976;2023-07-31T12:05:33;99685.91;;;24.90;46.47
59686;BME280;45554;51.096;16.976;2023-07-31T12:08:24;99677.98;;;25.00;45.91
59686;BME280;45554;51.096;16.976;2023-07-31T12:11:09;99678.41;;;25.04;45.74
59686;BME280;45554;51.096;16.976;2023-07-31T12:13:39;99674.02;;;25.03;45.77
59686;BME280;45554;51.096;16.976;2023-07-31T12:16:07;99673.62;;;25.03;45.12
59686;BME280;45554;51.096;16.976;2023-07-31T12:18:43;99666.37;;;24.92;45.00
59686;BME280;45554;51.096;16.976;2023-07-31T12:21:29;99671.55;;;24.73;44.88
59686;BME280;45554;51.096;16.976;2023-07-31T12:24:00;99664.61;;;24.63;45.62
59686;BME280;45554;51.096;16.976;2023-07-31T12:26:38;99661.66;;;24.70;45.68
59686;BME280;45554;51.096;16.976;2023-07-31T12:29:21;99655.89;;;24.74;44.80
59686;BME280;45554;51.096;16.976;2023-07-31T12:31:59;99651.12;;;24.82;45.01
59686;BME280;45554;51.096;16.976;2023-07-31T12:34:42;99650.45;;;24.88;44.27
59686;BME280;45554;51.096;16.976;2023-07-31T12:37:24;99636.94;;;24.99;44.64
59686;BME280;45554;51.096;16.976;2023-07-31T12:40:09;99639.11;;;25.08;44.13
59686;BME280;45554;51.096;16.976;2023-07-31T12:42:37;99630.04;;;25.08;44.18
59686;BME280;45554;51.096;16.976;2023-07-31T12:45:07;99634.25;;;25.05;44.47
59686;BME280;45554;51.096;16.976;2023-07-31T12:47:41;99628.06;;;24.98;44.74
59686;BME280;45554;51.096;16.976;2023-07-31T12:50:09;99629.65;;;24.78;44.37
59686;BME280;45554;51.096;16.976;2023-07-31T12:52:38;99629.73;;;24.57;45.02
59686;BME280;45554;51.096;16.976;2023-07-31T12:55:06;99624.50;;;24.35;45.43
59686;BME280;45554;51.096;16.976;2023-07-31T12:57:34;99622.75;;;24.10;45.40
59686;BME280;45554;51.096;16.976;2023-07-31T13:00:09;99617.84;;;23.90;46.21
59686;BME280;45554;51.096;16.976;2023-07-31T13:02:37;99602.73;;;23.83;46.24
59686;BME280;45554;51.096;16.976;2023-07-31T13:05:06;99605.54;;;23.84;46.59
59686;BME280;45554;51.096;16.976;2023-07-31T13:07:37;99604.86;;;24.00;46.64
59686;BME280;45554;51.096;16.976;2023-07-31T13:10:06;99600.73;;;24.22;46.40
59686;BME280;45554;51.096;16.976;2023-07-31T13:12:37;99603.30;;;24.44;46.04
59686;BME280;45554;51.096;16.976;2023-07-31T13:15:06;99603.06;;;24.60;45.61